Temp: 2.7°C   Baro: 1026.6mb
  Wind: 0.9mph   Dir: ESE (123°)
  Rain: 0.0mm (0.0mm/hr)
  Solar: 118W/m2  Hum: 97%

Historic data

Bath Spa Weather Station Historical Data
Daily Summary for August 05, 2022 Units:  English    Metric   Both
Daily Weekly Monthly Yearly Custom
  High: Low: Average:
Temperature: 70.2 °F 50.1 °F 61.4 °F
Dew Point: 52.3 °F 44.5 °F 48.5 °F
Humidity: 83% 47% 64%
Wind Speed: 12mph 0mph 3.8mph
Wind Gust: 19mph - -
Wind- - NW
Pressure: 30.38 in 30.14 in -
Precipitation: 0.00 in    
Historical Graphs
 
 
Tabular Data for August 05, 2022
Time Temperature Dew Point Pressure Wind Wind Speed Wind Gust Humidity Rainfall Rate (Hourly) solar
00:09 59 °F 47.8 °F 30.14 in NW 1.6 mph 3 mph 66.4% 0.00 in 0 W/m2
00:14 59 °F 48.1 °F 30.14 in NW 2.1 mph 4 mph 67.4% 0.00 in 0 W/m2
00:19 58.8 °F 48.2 °F 30.14 in WNW 1.9 mph 3 mph 68% 0.00 in 0 W/m2
00:24 58.7 °F 48.2 °F 30.14 in WNW 1.3 mph 4 mph 68% 0.00 in 0 W/m2
00:29 58.6 °F 47.7 °F 30.14 in WNW 1.2 mph 4 mph 67% 0.00 in 0 W/m2
00:34 58.6 °F 47.7 °F 30.14 in WNW 1.4 mph 3 mph 67% 0.00 in 0 W/m2
00:39 58.6 °F 47.7 °F 30.14 in WNW 1.6 mph 3 mph 67% 0.00 in 0 W/m2
00:44 58.6 °F 47.7 °F 30.15 in WNW 1.2 mph 4 mph 67% 0.00 in 0 W/m2
00:49 58.6 °F 47.7 °F 30.15 in WNW 1.1 mph 3 mph 67% 0.00 in 0 W/m2
00:54 58.6 °F 47.7 °F 30.15 in WNW 1.5 mph 4 mph 67% 0.00 in 0 W/m2
00:59 58.6 °F 47.7 °F 30.15 in WNW 0.5 mph 3 mph 67% 0.00 in 0 W/m2
01:04 58.5 °F 47.5 °F 30.15 in WNW 1.9 mph 4 mph 67% 0.00 in 0 W/m2
01:09 58.5 °F 47.5 °F 30.15 in WNW 1.8 mph 4 mph 67% 0.00 in 0 W/m2
01:14 58.5 °F 47.5 °F 30.15 in WNW 1.5 mph 4 mph 67% 0.00 in 0 W/m2
01:19 58.5 °F 47.5 °F 30.15 in NW 2.4 mph 5 mph 67% 0.00 in 0 W/m2
01:24 58.5 °F 47.6 °F 30.15 in NNW 1.7 mph 5 mph 67.2% 0.00 in 0 W/m2
01:29 58.3 °F 47.6 °F 30.15 in NW 2 mph 4 mph 67.6% 0.00 in 0 W/m2
01:34 58.3 °F 47.8 °F 30.15 in NW 2.3 mph 6 mph 68% 0.00 in 0 W/m2
01:39 58.1 °F 47.8 °F 30.15 in NW 2.9 mph 5 mph 68.4% 0.00 in 0 W/m2
01:44 57.9 °F 47.8 °F 30.15 in NW 1.9 mph 5 mph 69% 0.00 in 0 W/m2
01:49 57.8 °F 47.8 °F 30.16 in NW 2.2 mph 5 mph 69% 0.00 in 0 W/m2
01:54 57.8 °F 47.9 °F 30.16 in NW 1.3 mph 4 mph 69.4% 0.00 in 0 W/m2
01:59 57.7 °F 48 °F 30.16 in NW 2.4 mph 6 mph 70% 0.00 in 0 W/m2
02:04 57.8 °F 48.1 °F 30.16 in NW 2.1 mph 5 mph 70% 0.00 in 0 W/m2
02:09 57.7 °F 48 °F 30.16 in WNW 2.5 mph 6 mph 70% 0.00 in 0 W/m2
02:14 57.7 °F 48.2 °F 30.16 in NW 2.4 mph 4 mph 70.4% 0.00 in 0 W/m2
02:19 57.6 °F 48.2 °F 30.16 in NW 1.2 mph 3 mph 71% 0.00 in 0 W/m2
02:24 57.6 °F 48.2 °F 30.16 in NW 1.5 mph 3 mph 71% 0.00 in 0 W/m2
02:29 57.2 °F 48 °F 30.16 in WNW 2 mph 5 mph 71.6% 0.00 in 0 W/m2
02:33 57 °F 48 °F 30.16 in WNW 3 mph 5 mph 72% 0.00 in 0 W/m2
02:39 56.8 °F 48.2 °F 30.16 in WNW 2.4 mph 4 mph 73% 0.00 in 0 W/m2
02:44 56.7 °F 48.1 °F 30.16 in WNW 2.6 mph 5 mph 73% 0.00 in 0 W/m2
02:49 56.7 °F 48 °F 30.16 in WNW 1.2 mph 3 mph 73% 0.00 in 0 W/m2
02:54 56.6 °F 48.2 °F 30.16 in WNW 1.3 mph 2 mph 73.4% 0.00 in 0 W/m2
02:59 56.5 °F 48.4 °F 30.17 in WNW 1.2 mph 3 mph 74% 0.00 in 0 W/m2
03:04 56.3 °F 48.2 °F 30.17 in Calm   2 mph 74% 0.00 in 0 W/m2
03:09 56 °F 47.9 °F 30.17 in WNW 2.5 mph 3 mph 74% 0.00 in 0 W/m2
03:14 55.8 °F 47.9 °F 30.17 in WNW 1.4 mph 3 mph 74.8% 0.00 in 0 W/m2
03:19 55.6 °F 47.8 °F 30.17 in WNW 2.2 mph 4 mph 75% 0.00 in 0 W/m2
03:24 55.6 °F 47.8 °F 30.17 in WNW 0.5 mph 4 mph 75% 0.00 in 0 W/m2
03:29 55.6 °F 47.8 °F 30.17 in WNW 1 mph 2 mph 75% 0.00 in 0 W/m2
03:34 55.3 °F 47.9 °F 30.17 in WNW 0.5 mph 1 mph 76% 0.00 in 0 W/m2
03:39 55.2 °F 47.8 °F 30.17 in WNW 0.7 mph 2 mph 76% 0.00 in 0 W/m2
03:44 55.2 °F 47.8 °F 30.17 in WNW 0.4 mph 2 mph 76% 0.00 in 0 W/m2
03:49 55 °F 47.7 °F 30.17 in Calm   1 mph 76% 0.00 in 0 W/m2
03:54 54.9 °F 47.5 °F 30.17 in Calm     76% 0.00 in 0 W/m2
03:59 54.7 °F 47.7 °F 30.17 in Calm     77% 0.00 in 0 W/m2
04:04 54.7 °F 47.7 °F 30.17 in Calm     77% 0.00 in 0 W/m2
04:09 54.4 °F 47.4 °F 30.18 in Calm     77% 0.00 in 0 W/m2
04:14 54.3 °F 47.3 °F 30.18 in Calm     77% 0.00 in 0 W/m2
04:19 54.1 °F 47.1 °F 30.18 in Calm     77% 0.00 in 0 W/m2
04:24 54 °F 46.9 °F 30.17 in Calm     77% 0.00 in 0 W/m2
04:28 53.8 °F 46.8 °F 30.17 in Calm     77% 0.00 in 0 W/m2
04:34 53.4 °F 46.5 °F 30.18 in WNW 0.6 mph 2 mph 77.2% 0.00 in 0 W/m2
04:39 53.2 °F 46.6 °F 30.18 in Calm   1 mph 78% 0.00 in 0 W/m2
04:44 53.1 °F 46.4 °F 30.18 in Calm     78% 0.00 in 0 W/m2
04:49 53 °F 46.3 °F 30.18 in Calm   1 mph 78% 0.00 in 0 W/m2
04:54 52.9 °F 46.2 °F 30.18 in WNW 0.4 mph 1 mph 78% 0.00 in 0 W/m2
04:59 52.7 °F 46 °F 30.18 in WNW 0.5 mph 1 mph 78% 0.00 in 0 W/m2
05:04 52.5 °F 45.9 °F 30.18 in WNW 0.2 mph 1 mph 78% 0.00 in 0 W/m2
05:09 52.3 °F 45.6 °F 30.18 in Calm   1 mph 78% 0.00 in 0 W/m2
05:14 52.1 °F 45.4 °F 30.17 in Calm     78% 0.00 in 0 W/m2
05:19 51.8 °F 45.2 °F 30.18 in Calm     78% 0.00 in 0 W/m2
05:24 51.6 °F 45 °F 30.18 in Calm   1 mph 78% 0.00 in 0 W/m2
05:29 51.3 °F 44.7 °F 30.18 in WNW 0.5 mph 2 mph 78% 0.00 in 0 W/m2
05:34 51.3 °F 44.6 °F 30.19 in WNW 0.2 mph 2 mph 78% 0.00 in 0 W/m2
05:39 51.1 °F 44.8 °F 30.19 in WNW 0.5 mph 3 mph 78.8% 0.00 in 0 W/m2
05:44 51 °F 44.7 °F 30.19 in WNW 1 mph 3 mph 79% 0.00 in 5 W/m2
05:49 50.7 °F 44.6 °F 30.19 in WNW 0.5 mph 3 mph 79.6% 0.00 in 7 W/m2
05:54 50.5 °F 44.6 °F 30.19 in WNW 0.4 mph 1 mph 80% 0.00 in 9 W/m2
05:59 50.4 °F 44.5 °F 30.19 in WNW 1.6 mph 2 mph 80.4% 0.00 in 11 W/m2
06:04 50.2 °F 44.6 °F 30.19 in WNW 1.2 mph 3 mph 81% 0.00 in 12 W/m2
06:09 50.2 °F 44.7 °F 30.19 in WNW 0.6 mph 3 mph 81.4% 0.00 in 14 W/m2
06:14 50.1 °F 44.9 °F 30.19 in WNW 0.2 mph 1 mph 82% 0.00 in 16 W/m2
06:19 50.1 °F 44.9 °F 30.20 in WNW 1 mph 4 mph 82% 0.00 in 18 W/m2
06:24 50.2 °F 45 °F 30.20 in WNW 1.7 mph 4 mph 82% 0.00 in 19 W/m2
06:29 50.2 °F 45 °F 30.20 in WNW 1.2 mph 4 mph 82% 0.00 in 19 W/m2
06:34 50.2 °F 45.1 °F 30.20 in WNW 0.6 mph 3 mph 83% 0.00 in 21 W/m2
06:39 50.4 °F 45.3 °F 30.20 in WNW 0.5 mph 2 mph 83% 0.00 in 23 W/m2
06:44 50.5 °F 45.5 °F 30.20 in WNW 0.2 mph 2 mph 83% 0.00 in 25 W/m2
06:49 50.7 °F 45.7 °F 30.21 in WNW 0.8 mph 3 mph 83% 0.00 in 25 W/m2
06:54 50.9 °F 45.9 °F 30.21 in WNW 0.4 mph 3 mph 83% 0.00 in 28 W/m2
06:59 51.2 °F 46.1 °F 30.21 in WNW 1 mph 3 mph 83% 0.00 in 33 W/m2
07:04 51.4 °F 46.3 °F 30.21 in WNW 1.4 mph 3 mph 82.8% 0.00 in 40 W/m2
07:09 51.7 °F 46.3 °F 30.21 in WNW 1.2 mph 2 mph 82% 0.00 in 53 W/m2
07:14 52.1 °F 46.7 °F 30.21 in WNW 0.9 mph 3 mph 82% 0.00 in 67 W/m2
07:19 52.4 °F 47 °F 30.21 in WNW 0.4 mph 3 mph 82% 0.00 in 83 W/m2
07:24 52.7 °F 47.2 °F 30.21 in WNW 0.8 mph 3 mph 81.8% 0.00 in 97 W/m2
07:29 53 °F 47.3 °F 30.21 in WNW 0.6 mph 2 mph 81% 0.00 in 113 W/m2
07:34 53.4 °F 47.7 °F 30.22 in WNW 1.4 mph 3 mph 81% 0.00 in 130 W/m2
07:38 54 °F 48.2 °F 30.22 in WNW 0.7 mph 2 mph 81% 0.00 in 144 W/m2
07:44 54.2 °F 48.1 °F 30.22 in WNW 1.1 mph 3 mph 80% 0.00 in 162 W/m2
07:49 54.7 °F 48.5 °F 30.22 in WNW 2.4 mph 5 mph 79.6% 0.00 in 179 W/m2
07:54 55.1 °F 48.6 °F 30.22 in West 2.4 mph 5 mph 78.8% 0.00 in 195 W/m2
07:59 55.6 °F 48.8 °F 30.22 in West 4.8 mph 7 mph 77.8% 0.00 in 211 W/m2
08:04 55.9 °F 48.7 °F 30.22 in West 3.9 mph 7 mph 76.6% 0.00 in 227 W/m2
08:09 56.1 °F 48.7 °F 30.22 in West 4 mph 7 mph 76% 0.00 in 243 W/m2
08:14 56.5 °F 48.8 °F 30.23 in West 4.5 mph 9 mph 75.4% 0.00 in 257 W/m2
08:19 56.8 °F 48.8 °F 30.23 in West 3.5 mph 8 mph 75% 0.00 in 272 W/m2
08:24 57 °F 49 °F 30.22 in WNW 3.4 mph 6 mph 74.6% 0.00 in 290 W/m2
08:29 57.5 °F 49.2 °F 30.23 in NW 3.9 mph 7 mph 74% 0.00 in 308 W/m2
08:34 57.7 °F 49.2 °F 30.23 in WNW 1.9 mph 8 mph 73.2% 0.00 in 323 W/m2
08:39 58.2 °F 49.5 °F 30.23 in WNW 4.8 mph 8 mph 72.8% 0.00 in 339 W/m2
08:44 58.5 °F 49.5 °F 30.23 in WNW 4.4 mph 9 mph 72% 0.00 in 357 W/m2
08:49 58.8 °F 49.7 °F 30.23 in WNW 5.2 mph 11 mph 71.5% 0.00 in 373 W/m2
08:54 59.2 °F 49.5 °F 30.23 in NNW 2.9 mph 9 mph 70% 0.00 in 387 W/m2
08:59 59.7 °F 50 °F 30.23 in NW 2.8 mph 10 mph 70.2% 0.00 in 403 W/m2
09:04 59.7 °F 49.6 °F 30.24 in NNW 4.6 mph 10 mph 69.2% 0.00 in 415 W/m2
09:09 59.8 °F 49.4 °F 30.23 in NW 5.8 mph 11 mph 68.4% 0.00 in 427 W/m2
09:11 59.8 °F 49.2 °F 30.24 in NNW 4.5 mph 9 mph 68% 0.00 in 434 W/m2
09:29 61 °F 49.2 °F 30.24 in WNW 6.4 mph 12 mph 65.3% 0.00 in 478 W/m2
09:34 61.1 °F 49.6 °F 30.24 in NW 6.4 mph 10 mph 66% 0.00 in 490 W/m2
09:39 61.2 °F 49.8 °F 30.24 in NW 7.4 mph 12 mph 66.4% 0.00 in 504 W/m2
09:44 61.1 °F 49.8 °F 30.24 in NW 5.6 mph 11 mph 66.6% 0.00 in 517 W/m2
09:49 61.4 °F 50.2 °F 30.24 in NW 7.4 mph 13 mph 66.6% 0.00 in 527 W/m2
09:54 61.9 °F 50.3 °F 30.24 in NW 4.9 mph 13 mph 65.8% 0.00 in 540 W/m2
09:59 62.2 °F 50.3 °F 30.24 in NNW 6 mph 12 mph 64.8% 0.00 in 550 W/m2
10:04 62.1 °F 49.8 °F 30.24 in NW 5.8 mph 10 mph 64% 0.00 in 559 W/m2
10:09 62.2 °F 50.1 °F 30.24 in NNW 4.5 mph 10 mph 64.4% 0.00 in 573 W/m2
10:14 62.7 °F 49.7 °F 30.24 in WNW 5.1 mph 14 mph 62.4% 0.00 in 585 W/m2
10:19 63 °F 49.6 °F 30.24 in WNW 6.6 mph 13 mph 61.6% 0.00 in 592 W/m2
10:24 62.9 °F 49.2 °F 30.24 in NW 7.4 mph 12 mph 61% 0.00 in 605 W/m2
10:29 63 °F 49.4 °F 30.24 in NNW 4.5 mph 12 mph 61% 0.00 in 615 W/m2
10:34 63.7 °F 49.6 °F 30.24 in NW 6 mph 11 mph 60.2% 0.00 in 629 W/m2
10:39 64 °F 49.9 °F 30.24 in NNW 5.7 mph 9 mph 60.2% 0.00 in 635 W/m2
10:44 64.3 °F 49.8 °F 30.24 in WNW 5.1 mph 13 mph 59.2% 0.00 in 657 W/m2
10:49 64.4 °F 49.8 °F 30.24 in NNW 6.8 mph 13 mph 59% 0.00 in 673 W/m2
10:54 64.1 °F 49.6 °F 30.24 in NNW 7.1 mph 13 mph 59.2% 0.00 in 682 W/m2
10:59 63.9 °F 49.4 °F 30.24 in NW 10.4 mph 15 mph 59.2% 0.00 in 689 W/m2
11:04 63.7 °F 49.2 °F 30.24 in NW 7.4 mph 14 mph 59.2% 0.00 in 710 W/m2
11:09 63.9 °F 49.5 °F 30.24 in NNW 8.8 mph 14 mph 59.6% 0.00 in 728 W/m2
11:14 63.9 °F 49.5 °F 30.24 in NW 7.8 mph 18 mph 59.4% 0.00 in 735 W/m2
11:19 63.8 °F 49.4 °F 30.24 in NW 7.8 mph 15 mph 59.4% 0.00 in 759 W/m2
11:24 64 °F 48.9 °F 30.24 in NW 7 mph 13 mph 57.8% 0.00 in 807 W/m2
11:29 64.5 °F 49.1 °F 30.24 in NW 7 mph 17 mph 57.6% 0.00 in 819 W/m2
11:34 64.8 °F 49.4 °F 30.24 in NW 5.8 mph 17 mph 57.4% 0.00 in 937 W/m2
11:39 65.5 °F 49.6 °F 30.25 in NW 5.4 mph 14 mph 56.6% 0.00 in 974 W/m2
11:44 65.1 °F 49.3 °F 30.25 in NW 6.1 mph 14 mph 56.4% 0.00 in 874 W/m2
11:49 65.1 °F 48.6 °F 30.25 in NW 6.1 mph 14 mph 55% 0.00 in 874 W/m2
11:54 65.2 °F 48.5 °F 30.25 in North 7.5 mph 13 mph 54.8% 0.00 in 928 W/m2
11:59 65.4 °F 48.8 °F 30.25 in NNW 10.4 mph 17 mph 55% 0.00 in 942 W/m2
12:04 65.5 °F 48.9 °F 30.25 in NW 6.8 mph 15 mph 55% 0.00 in 907 W/m2
12:09 65.7 °F 49.4 °F 30.25 in NW 7.4 mph 14 mph 55.6% 0.00 in 193 W/m2
12:14 65.5 °F 49.6 °F 30.25 in WNW 7.9 mph 17 mph 56.4% 0.00 in 900 W/m2
12:19 65.4 °F 49.6 °F 30.25 in WNW 8.2 mph 17 mph 56.8% 0.00 in 904 W/m2
12:24 65.6 °F 49.8 °F 30.25 in West 7.6 mph 17 mph 56.8% 0.00 in 882 W/m2
12:29 66.2 °F 49.8 °F 30.26 in WNW 6.4 mph 17 mph 55.4% 0.00 in 874 W/m2
12:34 66.4 °F 48.9 °F 30.26 in NNW 7.2 mph 13 mph 53.5% 0.00 in 860 W/m2
12:39 66.7 °F 49.8 °F 30.26 in WNW 5.6 mph 14 mph 54.4% 0.00 in 942 W/m2
12:44 66.8 °F 50 °F 30.26 in NW 7.4 mph 13 mph 54.8% 0.00 in 946 W/m2
12:49 66.6 °F 49.4 °F 30.25 in WNW 6.1 mph 13 mph 54% 0.00 in 969 W/m2
12:54 66.6 °F 49.5 °F 30.26 in WNW 12 mph 19 mph 54% 0.00 in 958 W/m2
12:59 66.3 °F 49.3 °F 30.26 in NW 6.2 mph 12 mph 54.4% 0.00 in 893 W/m2
13:04 66.9 °F 49.4 °F 30.26 in WNW 5.3 mph 13 mph 53.2% 0.00 in 889 W/m2
13:09 67.6 °F 49.7 °F 30.26 in WNW 7.8 mph 14 mph 52.6% 0.00 in 888 W/m2
13:14 67.5 °F 49.7 °F 30.26 in NW 5.1 mph 10 mph 52.8% 0.00 in 895 W/m2
13:19 67.9 °F 49.8 °F 30.26 in West 4.4 mph 13 mph 52.4% 0.00 in 1016 W/m2
13:24 68 °F 49.9 °F 30.26 in North 7.6 mph 14 mph 52.4% 0.00 in 997 W/m2
13:29 67.2 °F 49.8 °F 30.26 in NW 6.8 mph 13 mph 53.6% 0.00 in 631 W/m2
13:34 67 °F 49.6 °F 30.26 in NW 6.4 mph 15 mph 53.6% 0.00 in 925 W/m2
13:39 67.3 °F 49.1 °F 30.26 in NW 7.4 mph 15 mph 52% 0.00 in 954 W/m2
13:44 67.6 °F 49.7 °F 30.26 in NW 7.1 mph 16 mph 52.6% 0.00 in 951 W/m2
13:49 67.5 °F 50.1 °F 30.27 in NW 8.2 mph 17 mph 53.6% 0.00 in 888 W/m2
13:54 68.2 °F 51.1 °F 30.26 in WNW 4 mph 11 mph 54.3% 0.00 in 886 W/m2
13:59 68.7 °F 50.8 °F 30.26 in WNW 7.6 mph 17 mph 52.8% 0.00 in 912 W/m2
14:04 68.4 °F 50.8 °F 30.27 in NW 8.2 mph 16 mph 53.4% 0.00 in 944 W/m2
14:09 68.4 °F 50.4 °F 30.27 in NW 5.7 mph 15 mph 52.8% 0.00 in 921 W/m2
14:14 68.8 °F 51.1 °F 30.27 in WNW 7.4 mph 14 mph 53.2% 0.00 in 1002 W/m2
14:19 68.5 °F 50.2 °F 30.27 in WNW 5.5 mph 12 mph 52.2% 0.00 in 988 W/m2
14:24 68.8 °F 50.3 °F 30.27 in WNW 8 mph 16 mph 51.8% 0.00 in 949 W/m2
14:29 68.8 °F 50.1 °F 30.27 in WNW 8.8 mph 17 mph 51.4% 0.00 in 976 W/m2
14:34 69.3 °F 50.4 °F 30.27 in WNW 6 mph 17 mph 51% 0.00 in 976 W/m2
14:39 69.4 °F 50.4 °F 30.27 in WNW 6.7 mph 14 mph 50.8% 0.00 in 969 W/m2
14:44 69.7 °F 50.7 °F 30.27 in West 4.9 mph 14 mph 50.8% 0.00 in 251 W/m2
14:49 69 °F 49.7 °F 30.27 in NW 8 mph 17 mph 50.2% 0.00 in 352 W/m2
14:54 68.3 °F 49.3 °F 30.27 in NW 8 mph 17 mph 50.8% 0.00 in 285 W/m2
14:59 67.8 °F 49.5 °F 30.27 in WNW 5.2 mph 12 mph 51.8% 0.00 in 963 W/m2
15:04 68.4 °F 49.7 °F 30.27 in NW 8.8 mph 16 mph 51.4% 0.00 in 919 W/m2
15:09 68.4 °F 49.8 °F 30.27 in WNW 6.5 mph 13 mph 51.5% 0.00 in 919 W/m2
15:14 68.9 °F 50.3 °F 30.27 in NW 8.4 mph 13 mph 51.6% 0.00 in 847 W/m2
15:19 68.9 °F 50.1 °F 30.27 in WSW 4.5 mph 12 mph 51.2% 0.00 in 151 W/m2
15:24 68.1 °F 49.4 °F 30.27 in NW 8 mph 12 mph 51.2% 0.00 in 188 W/m2
15:29 67.5 °F 49.6 °F 30.27 in WNW 5.8 mph 11 mph 52.6% 0.00 in 802 W/m2
15:34 68.3 °F 51.1 °F 30.27 in WNW 5.4 mph 10 mph 54% 0.00 in 780 W/m2
15:39 67.9 °F 50.2 °F 30.27 in WNW 6 mph 10 mph 53% 0.00 in 775 W/m2
15:44 68.3 °F 49.9 °F 30.27 in WNW 5.8 mph 12 mph 51.8% 0.00 in 766 W/m2
15:49 69.1 °F 50.4 °F 30.27 in WNW 4.2 mph 10 mph 51.4% 0.00 in 775 W/m2
15:54 69.4 °F 50 °F 30.27 in WNW 6.8 mph 15 mph 50% 0.00 in 795 W/m2
15:59 69.5 °F 49.8 °F 30.27 in WNW 7 mph 14 mph 49.4% 0.00 in 891 W/m2
16:04 70.1 °F 49.8 °F 30.27 in WNW 7.8 mph 15 mph 48.6% 0.00 in 895 W/m2
16:09 70.2 °F 48.9 °F 30.27 in West 9.6 mph 16 mph 47% 0.00 in 846 W/m2
16:14 70.1 °F 49.4 °F 30.27 in WNW 6.6 mph 14 mph 47.8% 0.00 in 847 W/m2
16:19 70.1 °F 50.6 °F 30.27 in West 8 mph 14 mph 49.8% 0.00 in 847 W/m2
16:24 69.9 °F 50.5 °F 30.27 in WNW 6.6 mph 15 mph 50.2% 0.00 in 742 W/m2
16:29 69.5 °F 50.5 °F 30.27 in WNW 6.6 mph 12 mph 50.8% 0.00 in 777 W/m2
16:34 69.9 °F 50.6 °F 30.27 in WNW 2.5 mph 9 mph 50.3% 0.00 in 791 W/m2
16:39 69.7 °F 50.2 °F 30.27 in NW 9.4 mph 17 mph 49.8% 0.00 in 719 W/m2
16:44 70 °F 50.2 °F 30.27 in WNW 6.3 mph 13 mph 49.4% 0.00 in 687 W/m2
16:49 69.8 °F 51.7 °F 30.27 in WNW 7 mph 14 mph 52.4% 0.00 in 710 W/m2
16:54 69.6 °F 52.2 °F 30.27 in West 6.7 mph 14 mph 54% 0.00 in 715 W/m2
16:59 69.7 °F 52.3 °F 30.27 in WNW 6.6 mph 12 mph 54% 0.00 in 733 W/m2
17:04 69.5 °F 51.7 °F 30.27 in WNW 8.2 mph 16 mph 53% 0.00 in 719 W/m2
17:09 69.5 °F 51.1 °F 30.27 in West 7.5 mph 16 mph 52% 0.00 in 686 W/m2
17:14 69.4 °F 51.3 °F 30.27 in West 5.5 mph 16 mph 52.4% 0.00 in 295 W/m2
17:19 69.7 °F 50.5 °F 30.27 in WNW 6.4 mph 13 mph 50.4% 0.00 in 642 W/m2
17:24 70 °F 50.6 °F 30.27 in NW 9.3 mph 15 mph 50% 0.00 in 612 W/m2
17:29 69.5 °F 50.2 °F 30.27 in WNW 8 mph 15 mph 50.2% 0.00 in 624 W/m2
17:34 69.1 °F 49.9 °F 30.27 in WNW 7.1 mph 13 mph 50.4% 0.00 in 202 W/m2
17:39 69.4 °F 50 °F 30.27 in NW 5.8 mph 11 mph 50% 0.00 in 587 W/m2
17:44 69.4 °F 49.9 °F 30.27 in WNW 5.3 mph 11 mph 50% 0.00 in 585 W/m2
17:49 68.4 °F 49.2 °F 30.27 in NW 6.2 mph 11 mph 50.6% 0.00 in 155 W/m2
17:54 68.2 °F 49.6 °F 30.27 in NW 4.9 mph 13 mph 51.6% 0.00 in 111 W/m2
17:59 68.2 °F 49.3 °F 30.27 in WNW 3.7 mph 8 mph 51% 0.00 in 111 W/m2
18:04 68.3 °F 49.8 °F 30.27 in WNW 4.8 mph 12 mph 51.8% 0.00 in 457 W/m2
18:09 68.7 °F 49.3 °F 30.27 in WNW 6 mph 12 mph 50% 0.00 in 448 W/m2
18:14 69.3 °F 49.8 °F 30.27 in WNW 7.4 mph 13 mph 50% 0.00 in 443 W/m2
18:19 69.1 °F 49.6 °F 30.27 in NW 6 mph 11 mph 50% 0.00 in 425 W/m2
18:24 69.1 °F 49.6 °F 30.27 in WNW 5.2 mph 12 mph 50% 0.00 in 425 W/m2
18:29 68.5 °F 49.1 °F 30.28 in WNW 7.7 mph 14 mph 50% 0.00 in 410 W/m2
18:34 68.5 °F 49.2 °F 30.28 in NW 7 mph 14 mph 50.2% 0.00 in 392 W/m2
18:39 68.2 °F 49.2 °F 30.28 in WNW 4.9 mph 14 mph 50.8% 0.00 in 120 W/m2
18:43 67.7 °F 49 °F 30.28 in WNW 4.2 mph 11 mph 51% 0.00 in 169 W/m2
18:49 67.4 °F 49.2 °F 30.28 in NW 6 mph 12 mph 52% 0.00 in 195 W/m2
18:54 67.4 °F 49 °F 30.28 in WNW 4.1 mph 10 mph 51.6% 0.00 in 257 W/m2
18:59 67.6 °F 48.8 °F 30.28 in WNW 5.8 mph 10 mph 51% 0.00 in 227 W/m2
19:04 67.2 °F 48.7 °F 30.28 in NW 6.6 mph 10 mph 51.4% 0.00 in 70 W/m2
19:09 66.9 °F 48.4 °F 30.29 in NNW 4.2 mph 10 mph 51.4% 0.00 in 113 W/m2
19:14 67 °F 48.3 °F 30.29 in WNW 4.4 mph 12 mph 51% 0.00 in 172 W/m2
19:19 67.3 °F 48.4 °F 30.29 in NW 4.6 mph 12 mph 50.8% 0.00 in 171 W/m2
19:24 67.5 °F 48.4 °F 30.29 in NW 4.6 mph 10 mph 50.4% 0.00 in 167 W/m2
19:29 67.6 °F 48.8 °F 30.29 in NW 4.9 mph 9 mph 50.8% 0.00 in 156 W/m2
19:34 67.5 °F 48.2 °F 30.29 in NW 4.9 mph 10 mph 49.8% 0.00 in 137 W/m2
19:39 67.5 °F 48.1 °F 30.29 in NW 5 mph 11 mph 49.8% 0.00 in 111 W/m2
19:44 66.9 °F 47.6 °F 30.29 in NW 4.9 mph 10 mph 49.8% 0.00 in 116 W/m2
19:49 67 °F 47.5 °F 30.29 in NW 5.2 mph 9 mph 49.6% 0.00 in 97 W/m2
19:54 66.8 °F 47.6 °F 30.29 in NW 4.4 mph 11 mph 50% 0.00 in 67 W/m2
19:59 66.6 °F 47.6 °F 30.30 in NNW 3.9 mph 11 mph 50.6% 0.00 in 58 W/m2
20:04 66.6 °F 47.9 °F 30.30 in NW 2.4 mph 6 mph 51.2% 0.00 in 53 W/m2
20:09 66.3 °F 48.1 °F 30.30 in NW 5.2 mph 10 mph 52% 0.00 in 33 W/m2
20:14 65.6 °F 48.1 °F 30.30 in NW 4.9 mph 8 mph 53.2% 0.00 in 28 W/m2
20:19 65 °F 48.2 °F 30.30 in North 5.2 mph 8 mph 54.6% 0.00 in 21 W/m2
20:24 64.7 °F 48.6 °F 30.31 in NNW 4.9 mph 10 mph 55.8% 0.00 in 19 W/m2
20:29 64.3 °F 48.4 °F 30.31 in NNW 4.2 mph 7 mph 56.2% 0.00 in 16 W/m2
20:34 64.1 °F 48.6 °F 30.31 in NW 4.3 mph 9 mph 57% 0.00 in 14 W/m2
20:39 63.8 °F 48.5 °F 30.31 in North 4.3 mph 9 mph 57.4% 0.00 in 11 W/m2
20:44 63.6 °F 48.5 °F 30.31 in NNW 2.4 mph 6 mph 58% 0.00 in 7 W/m2
20:49 63.3 °F 48.4 °F 30.32 in NNW 2.5 mph 6 mph 58% 0.00 in 0 W/m2
20:54 63 °F 48.2 °F 30.32 in NNW 2.1 mph 5 mph 58.2% 0.00 in 0 W/m2
20:59 62.8 °F 48.2 °F 30.32 in NNW 3.6 mph 5 mph 59% 0.00 in 0 W/m2
21:04 62.5 °F 48.1 °F 30.32 in NNW 1.7 mph 5 mph 59.4% 0.00 in 0 W/m2
21:09 62.3 °F 48.2 °F 30.33 in NNW 2.1 mph 6 mph 59.8% 0.00 in 0 W/m2
21:14 62.1 °F 48.1 °F 30.33 in NNW 2.7 mph 5 mph 60% 0.00 in 0 W/m2
21:19 61.9 °F 48.1 °F 30.33 in North 3 mph 6 mph 60.8% 0.00 in 0 W/m2
21:24 61.6 °F 48.1 °F 30.33 in NW 2.9 mph 5 mph 61% 0.00 in 0 W/m2
21:29 61.4 °F 48.1 °F 30.34 in NW 1.7 mph 4 mph 61.6% 0.00 in 0 W/m2
21:34 61.3 °F 48.2 °F 30.34 in NW 0.5 mph 2 mph 62% 0.00 in 0 W/m2
21:39 61.2 °F 48.2 °F 30.34 in NW 1.3 mph 2 mph 62.4% 0.00 in 0 W/m2
21:44 61 °F 48.4 °F 30.35 in NW 1.7 mph 3 mph 63% 0.00 in 0 W/m2
21:49 60.8 °F 48.2 °F 30.35 in NW 1.4 mph 3 mph 63% 0.00 in 0 W/m2
21:54 60.6 °F 48.3 °F 30.35 in NW 1.2 mph 3 mph 63.8% 0.00 in 0 W/m2
21:59 60.4 °F 48.2 °F 30.35 in NW 1.5 mph 3 mph 64% 0.00 in 0 W/m2
22:04 60.4 °F 48.6 °F 30.35 in NW 1.6 mph 3 mph 65% 0.00 in 0 W/m2
22:09 60.2 °F 48.3 °F 30.35 in NW 3 mph 5 mph 65% 0.00 in 0 W/m2
22:14 60 °F 48.3 °F 30.35 in NW 1.6 mph 4 mph 65.4% 0.00 in 0 W/m2
22:19 59.9 °F 48.6 °F 30.36 in NW 2.3 mph 5 mph 66% 0.00 in 0 W/m2
22:24 59.8 °F 48.5 °F 30.36 in NW 2.5 mph 4 mph 66% 0.00 in 0 W/m2
22:29 59.6 °F 48.7 °F 30.36 in NW 2.1 mph 4 mph 67% 0.00 in 0 W/m2
22:34 59.5 °F 48.6 °F 30.36 in NW 1.7 mph 4 mph 67% 0.00 in 0 W/m2
22:39 59.4 °F 48.4 °F 30.36 in NW 1.7 mph 3 mph 67% 0.00 in 0 W/m2
22:44 59.3 °F 48.6 °F 30.36 in NW 1.7 mph 4 mph 67.8% 0.00 in 0 W/m2
22:49 59.1 °F 48.5 °F 30.37 in NW 1.8 mph 3 mph 68% 0.00 in 0 W/m2
22:54 58.7 °F 48.3 °F 30.37 in NW 1.3 mph 3 mph 68.2% 0.00 in 0 W/m2
22:59 58.5 °F 48.4 °F 30.37 in NW 1.1 mph 3 mph 69% 0.00 in 0 W/m2
23:04 58.3 °F 48.2 °F 30.37 in NW 0.4 mph 2 mph 69% 0.00 in 0 W/m2
23:09 58.1 °F 48.4 °F 30.37 in NW 0.4 mph 2 mph 70% 0.00 in 0 W/m2
23:14 57.9 °F 48.2 °F 30.37 in NW 0.2 mph 2 mph 70% 0.00 in 0 W/m2
23:19 57.8 °F 48.4 °F 30.37 in NW 0.5 mph 2 mph 70.8% 0.00 in 0 W/m2
23:24 57.7 °F 48.4 °F 30.37 in Calm   1 mph 71% 0.00 in 0 W/m2
23:29 57.7 °F 48.4 °F 30.37 in NW 0.4 mph 3 mph 71% 0.00 in 0 W/m2
23:34 57.7 °F 48.4 °F 30.37 in NW 0.6 mph 3 mph 71% 0.00 in 0 W/m2
23:39 57.7 °F 48.2 °F 30.37 in NW 1.2 mph 3 mph 70.6% 0.00 in 0 W/m2
23:44 57.8 °F 48.1 °F 30.37 in NW 1.5 mph 5 mph 70% 0.00 in 0 W/m2
23:49 57.9 °F 47.9 °F 30.38 in NW 1.2 mph 4 mph 69.2% 0.00 in 0 W/m2
23:54 58 °F 47.9 °F 30.38 in NNW 2.2 mph 8 mph 69% 0.00 in 0 W/m2
23:59 58.3 °F 48.1 °F 30.38 in NNE 2.8 mph 8 mph 68.8% 0.00 in 0 W/m2
Bath Spa Weather
Compliments of Weather Underground - 2 mb